createdAt,value
2023-04-04T00:00:45.987Z,2055.00
2023-04-04T00:01:45.992Z,2066.05
2023-04-04T00:02:46.038Z,2039.42
2023-04-04T00:03:47.132Z,2051.87
2023-04-04T00:04:45.977Z,2062.88
2023-04-04T00:05:45.918Z,2047.18
2023-04-04T00:06:45.920Z,2062.88
2023-04-04T00:07:45.937Z,2064.47
2023-04-04T00:08:45.884Z,2028.66
2023-04-04T00:09:45.880Z,2044.07
2023-04-04T00:10:45.868Z,1997.03
2023-04-04T00:11:45.846Z,2053.44
2023-04-04T00:12:45.855Z,2050.30
2023-04-04T00:13:45.872Z,2016.49
2023-04-04T00:14:45.815Z,2069.23
2023-04-04T00:15:45.828Z,2069.23
2023-04-04T00:16:45.804Z,2069.23
2023-04-04T00:17:45.814Z,2061.30
2023-04-04T00:18:45.768Z,2088.51
2023-04-04T00:19:45.789Z,2116.44
2023-04-04T00:20:45.742Z,2098.28
2023-04-04T00:21:45.717Z,2138.31
2023-04-04T00:22:45.705Z,2136.62
2023-04-04T00:23:45.735Z,2157.18
2023-04-04T00:24:45.711Z,2150.28
2023-04-04T00:25:45.723Z,2129.85
2023-04-04T00:26:45.656Z,2133.23
2023-04-04T00:27:45.669Z,2138.31
2023-04-04T00:28:45.641Z,2143.43
2023-04-04T00:29:45.682Z,2145.14
2023-04-04T00:30:45.606Z,2140.02
2023-04-04T00:31:45.655Z,2124.80
2023-04-04T00:32:45.730Z,2055.00
2023-04-04T00:33:45.617Z,2098.28
2023-04-04T00:34:45.576Z,2045.63
2023-04-04T00:35:45.604Z,2095.01
2023-04-04T00:36:45.540Z,2108.15
2023-04-04T00:37:45.586Z,2140.02
2023-04-04T00:38:45.517Z,2067.64
2023-04-04T00:39:45.520Z,2124.80
2023-04-04T00:40:45.492Z,2055.00
2023-04-04T00:41:45.474Z,2101.56
2023-04-04T00:42:45.492Z,2129.85
2023-04-04T00:43:45.493Z,2086.89
2023-04-04T00:44:45.465Z,2080.43
2023-04-04T00:45:45.441Z,2075.62
2023-04-04T00:46:45.417Z,2150.28
2023-04-04T00:47:45.469Z,2108.15
2023-04-04T00:48:45.431Z,2138.31
2023-04-04T00:49:45.418Z,2143.43
2023-04-04T00:50:45.377Z,2152.00
2023-04-04T00:51:45.360Z,2143.43
2023-04-04T00:52:45.475Z,2118.11
2023-04-04T00:53:45.344Z,2078.82
2023-04-04T00:54:45.328Z,2108.15
2023-04-04T00:55:45.385Z,2169.35
2023-04-04T00:56:45.288Z,2145.14
2023-04-04T00:57:45.289Z,2088.51
2023-04-04T00:58:45.293Z,2101.56
2023-04-04T00:59:45.278Z,2169.35
2023-04-04T01:00:53.677Z,2145.14
2023-04-04T01:01:45.242Z,2230.51
2023-04-04T01:02:45.298Z,2212.17
2023-04-04T01:03:45.234Z,2206.73
2023-04-04T01:04:45.224Z,2179.90
2023-04-04T01:05:45.208Z,2221.30
2023-04-04T01:06:45.232Z,2230.51
2023-04-04T01:07:45.196Z,2230.51
2023-04-04T01:08:45.164Z,2266.22
2023-04-04T01:09:45.135Z,2213.99
2023-04-04T01:10:45.118Z,2281.59
2023-04-04T01:11:45.124Z,2283.53
2023-04-04T01:12:45.217Z,2249.16
2023-04-04T01:13:45.120Z,2331.02
2023-04-04T01:14:45.067Z,2254.82
2023-04-04T01:15:45.100Z,2256.71
2023-04-04T01:16:45.101Z,2221.30
2023-04-04T01:17:45.122Z,2239.80
2023-04-04T01:18:45.059Z,2281.59
2023-04-04T01:19:45.013Z,2285.47
2023-04-04T01:20:45.031Z,2324.98
2023-04-04T01:21:44.987Z,2316.97
2023-04-04T01:22:44.988Z,2318.97
2023-04-04T01:23:44.999Z,2309.01
2023-04-04T01:24:45.051Z,2322.97
2023-04-04T01:25:45.005Z,2314.97
2023-04-04T01:26:44.951Z,2372.13
2023-04-04T01:27:44.915Z,2406.08
2023-04-04T01:28:44.971Z,2349.34
2023-04-04T01:29:44.891Z,2363.80
2023-04-04T01:30:44.965Z,2339.13
2023-04-04T01:31:44.865Z,2359.65
2023-04-04T01:32:44.927Z,2388.99
2023-04-04T01:33:44.853Z,2367.96
2023-04-04T01:34:44.888Z,2311.00
2023-04-04T01:35:44.891Z,2291.31
2023-04-04T01:36:44.850Z,2320.97
2023-04-04T01:37:44.810Z,2376.32
2023-04-04T01:38:44.787Z,2384.75
2023-04-04T01:39:44.775Z,2384.75
2023-04-04T01:40:44.755Z,2343.21
2023-04-04T01:41:44.743Z,2363.80
2023-04-04T01:42:44.777Z,2365.88
2023-04-04T01:43:44.730Z,2347.29
2023-04-04T01:44:45.541Z,2307.03
2023-04-04T01:45:44.735Z,2324.98
2023-04-04T01:46:44.687Z,2376.32
2023-04-04T01:47:44.706Z,2331.02
2023-04-04T01:48:44.698Z,2337.10
2023-04-04T01:49:44.711Z,2322.97
2023-04-04T01:50:44.640Z,2312.98
2023-04-04T01:51:44.629Z,2343.21
2023-04-04T01:52:44.613Z,2295.22
2023-04-04T01:53:44.623Z,2252.93
2023-04-04T01:54:44.640Z,2287.41
2023-04-04T01:55:44.579Z,2303.08
2023-04-04T01:56:44.593Z,2345.25
2023-04-04T01:57:44.554Z,2347.29
2023-04-04T01:58:44.572Z,2322.97
2023-04-04T01:59:44.535Z,2307.03
2023-04-04T02:00:44.569Z,2339.13
2023-04-04T02:01:44.543Z,2322.97
2023-04-04T02:02:44.533Z,2309.01
2023-04-04T02:03:44.510Z,2333.04
2023-04-04T02:04:44.484Z,2359.65
2023-04-04T02:05:44.462Z,2365.88
2023-04-04T02:06:44.499Z,2318.97
2023-04-04T02:07:44.433Z,2351.40
2023-04-04T02:08:44.443Z,2349.34
2023-04-04T02:09:44.425Z,2303.08
2023-04-04T02:10:44.379Z,2314.97
2023-04-04T02:11:44.422Z,2299.15
2023-04-04T02:12:44.403Z,2287.41
2023-04-04T02:13:44.473Z,2262.41
2023-04-04T02:14:44.360Z,2260.50
2023-04-04T02:15:44.330Z,2301.11
2023-04-04T02:16:44.333Z,2283.53
2023-04-04T02:17:44.325Z,2241.67
2023-04-04T02:18:44.335Z,2219.47
2023-04-04T02:19:44.327Z,2213.99
2023-04-04T02:20:44.270Z,2172.86
2023-04-04T02:21:44.279Z,2204.92
2023-04-04T02:22:44.250Z,2210.35
2023-04-04T02:23:44.252Z,2224.98
2023-04-04T02:24:44.278Z,2243.54
2023-04-04T02:25:44.208Z,2241.67
2023-04-04T02:26:44.202Z,2236.08
2023-04-04T02:27:44.190Z,2095.01
2023-04-04T02:28:44.201Z,2128.16
2023-04-04T02:29:44.141Z,2165.86
2023-04-04T02:30:44.207Z,2212.17
2023-04-04T02:31:44.176Z,2241.67
2023-04-04T02:32:44.153Z,2252.93
2023-04-04T02:33:44.119Z,2245.41
2023-04-04T02:34:44.093Z,2289.36
2023-04-04T02:35:44.129Z,2195.92
2023-04-04T02:36:44.124Z,2203.11
2023-04-04T02:37:44.063Z,2192.34
2023-04-04T02:38:44.053Z,2186.99
2023-04-04T02:39:44.058Z,2201.31
2023-04-04T02:40:44.022Z,2204.92
2023-04-04T02:41:44.020Z,2178.14
2023-04-04T02:42:44.049Z,2164.12
2023-04-04T02:43:44.060Z,2162.38
2023-04-04T02:44:44.019Z,2148.56
2023-04-04T02:45:44.005Z,2121.45
2023-04-04T02:46:44.006Z,2091.76
2023-04-04T02:47:43.966Z,2077.22
2023-04-04T02:48:43.958Z,2053.44
2023-04-04T02:49:43.917Z,2019.52
2023-04-04T02:50:44.043Z,2034.80
2023-04-04T02:51:43.934Z,2007.46
2023-04-04T02:52:43.883Z,2037.88
2023-04-04T02:53:43.890Z,2021.04
2023-04-04T02:54:43.957Z,1997.03
2023-04-04T02:55:43.887Z,1977.94
2023-04-04T02:56:43.832Z,1980.85
2023-04-04T02:57:43.824Z,1946.45
2023-04-04T02:58:43.841Z,1952.10
2023-04-04T02:59:43.812Z,1972.14
2023-04-04T03:00:44.101Z,1939.44
2023-04-04T03:01:43.802Z,1938.04
2023-04-04T03:02:43.962Z,1910.51
2023-04-04T03:03:43.866Z,1902.40
2023-04-04T03:04:43.736Z,1889.04
2023-04-04T03:05:43.722Z,1886.40
2023-04-04T03:06:43.762Z,1871.95
2023-04-04T03:07:43.704Z,1870.65
2023-04-04T03:08:43.708Z,1870.65
2023-04-04T03:09:43.747Z,1865.46
2023-04-04T03:10:43.705Z,1878.49
2023-04-04T03:11:43.680Z,1878.49
2023-04-04T03:12:43.685Z,1883.75
2023-04-04T03:13:43.651Z,1843.73
2023-04-04T03:14:43.622Z,1832.43
2023-04-04T03:15:43.649Z,1834.92
2023-04-04T03:16:43.676Z,1824.97
2023-04-04T03:17:43.623Z,1832.43
2023-04-04T03:18:43.609Z,1811.45
2023-04-04T03:19:43.569Z,1801.74
2023-04-04T03:20:43.539Z,1800.54
2023-04-04T03:21:43.585Z,1790.94
2023-04-04T03:22:43.532Z,1788.56
2023-04-04T03:23:43.606Z,1783.82
2023-04-04T03:24:43.571Z,1792.14
2023-04-04T03:25:43.466Z,1770.90
2023-04-04T03:26:43.485Z,1774.41
2023-04-04T03:27:43.464Z,1749.02
2023-04-04T03:28:43.534Z,1736.60
2023-04-04T03:29:43.481Z,1751.30
2023-04-04T03:30:43.584Z,1747.89
2023-04-04T03:31:43.443Z,1734.36
2023-04-04T03:32:43.458Z,1729.90
2023-04-04T03:33:43.401Z,1726.57
2023-04-04T03:34:43.417Z,1724.36
2023-04-04T03:35:43.421Z,1705.77
2023-04-04T03:36:43.392Z,1690.76
2023-04-04T03:37:43.353Z,1697.16
2023-04-04T03:38:43.359Z,1685.46
2023-04-04T03:39:43.321Z,1676.01
2023-04-04T03:40:43.594Z,1672.89
2023-04-04T03:41:43.307Z,1674.97
2023-04-04T03:42:43.323Z,1616.59
2023-04-04T03:43:43.282Z,1585.15
2023-04-04T03:44:43.278Z,1576.79
2023-04-04T03:45:43.323Z,1559.42
2023-04-04T03:46:43.233Z,1571.26
2023-04-04T03:47:43.282Z,1546.87
2023-04-04T03:48:43.230Z,1540.66
2023-04-04T03:49:43.184Z,1554.91
2023-04-04T03:50:43.205Z,1553.12
2023-04-04T03:51:43.173Z,1558.52
2023-04-04T03:52:43.178Z,1571.26
2023-04-04T03:53:43.158Z,1573.10
2023-04-04T03:54:43.179Z,1587.96
2023-04-04T03:55:43.137Z,1558.52
2023-04-04T03:56:43.120Z,1590.77
2023-04-04T03:57:43.094Z,1571.26
2023-04-04T03:58:43.102Z,1566.69
2023-04-04T03:59:43.106Z,1545.98
2023-04-04T04:00:43.113Z,1534.51
2023-04-04T04:01:43.080Z,1560.32
2023-04-04T04:02:43.096Z,1552.22
2023-04-04T04:03:43.078Z,1564.86
2023-04-04T04:04:43.027Z,1558.52
2023-04-04T04:05:43.021Z,1541.55
2023-04-04T04:06:43.062Z,1526.67
2023-04-04T04:07:42.973Z,1535.39
2023-04-04T04:08:43.034Z,1547.76
2023-04-04T04:09:42.954Z,1552.22
2023-04-04T04:10:43.022Z,1569.43
2023-04-04T04:11:42.953Z,1577.71
2023-04-04T04:12:42.937Z,1576.79
2023-04-04T04:13:42.978Z,1569.43
2023-04-04T04:14:42.882Z,1571.26
2023-04-04T04:15:42.929Z,1573.10
2023-04-04T04:16:42.896Z,1571.26
2023-04-04T04:17:43.720Z,1568.51
2023-04-04T04:18:42.862Z,1551.33
2023-04-04T04:19:42.835Z,1547.76
2023-04-04T04:20:43.039Z,1538.90
2023-04-04T04:21:42.827Z,1502.79
2023-04-04T04:22:42.783Z,1507.00
2023-04-04T04:23:42.783Z,1487.83
2023-04-04T04:24:42.777Z,1484.55
2023-04-04T04:25:42.772Z,1492.79
2023-04-04T04:26:42.756Z,1501.12
2023-04-04T04:27:42.724Z,1478.02
2023-04-04T04:28:42.738Z,1476.40
2023-04-04T04:29:42.717Z,1473.17
2023-04-04T04:30:42.785Z,1476.40
2023-04-04T04:31:42.705Z,1479.65
2023-04-04T04:32:42.692Z,1491.13
2023-04-04T04:33:42.690Z,1465.14
2023-04-04T04:34:42.680Z,1446.24
2023-04-04T04:35:42.646Z,1440.04
2023-04-04T04:36:42.659Z,1436.96
2023-04-04T04:37:42.644Z,1432.37
2023-04-04T04:38:42.626Z,1443.13
2023-04-04T04:39:42.591Z,1421.78
2023-04-04T04:40:42.796Z,1415.79
2023-04-04T04:41:42.563Z,1405.43
2023-04-04T04:42:42.591Z,1401.04
2023-04-04T04:43:42.549Z,1390.90
2023-04-04T04:44:42.547Z,1409.85
2023-04-04T04:45:42.576Z,1398.13
2023-04-04T04:46:42.528Z,1372.45
2023-04-04T04:47:42.524Z,1331.68
2023-04-04T04:48:42.528Z,1329.05
2023-04-04T04:49:42.537Z,1331.68
2023-04-04T04:50:42.620Z,1342.31
2023-04-04T04:51:42.478Z,1350.40
2023-04-04T04:52:42.428Z,1358.58
2023-04-04T04:53:42.481Z,1366.87
2023-04-04T04:54:42.508Z,1353.12
2023-04-04T04:55:42.409Z,1349.05
2023-04-04T04:56:42.441Z,1334.32
2023-04-04T04:57:42.363Z,1334.32
2023-04-04T04:58:42.369Z,1330.37
2023-04-04T04:59:42.412Z,1342.31
2023-04-04T05:00:42.744Z,1339.64
2023-04-04T05:01:42.317Z,1346.35
2023-04-04T05:02:42.424Z,1346.35
2023-04-04T05:03:42.329Z,1364.10
2023-04-04T05:04:42.288Z,1355.85
2023-04-04T05:05:42.397Z,1369.65
2023-04-04T05:06:42.339Z,1354.48
2023-04-04T05:07:42.288Z,1361.33
2023-04-04T05:08:42.261Z,1361.33
2023-04-04T05:09:42.324Z,1358.58
2023-04-04T05:10:42.527Z,1359.96
2023-04-04T05:11:42.280Z,1336.98
2023-04-04T05:12:42.210Z,1340.98
2023-04-04T05:13:42.185Z,1351.76
2023-04-04T05:14:42.207Z,1357.21
2023-04-04T05:15:42.231Z,1361.33
2023-04-04T05:16:42.180Z,1347.69
2023-04-04T05:17:42.149Z,1350.40
2023-04-04T05:18:42.142Z,1333.00
2023-04-04T05:19:42.245Z,1343.66
2023-04-04T05:20:42.380Z,1345.00
2023-04-04T05:21:42.078Z,1347.69
2023-04-04T05:22:42.071Z,1347.69
2023-04-04T05:23:42.083Z,1351.76
2023-04-04T05:24:42.097Z,1354.48
2023-04-04T05:25:42.108Z,1353.12
2023-04-04T05:26:42.021Z,1310.92
2023-04-04T05:27:42.015Z,1308.36
2023-04-04T05:28:42.049Z,1336.98
2023-04-04T05:29:41.989Z,1346.35
2023-04-04T05:30:42.342Z,1365.48
2023-04-04T05:31:41.994Z,1359.96
2023-04-04T05:32:42.015Z,1357.21
2023-04-04T05:33:41.957Z,1347.69
2023-04-04T05:34:41.919Z,1369.65
2023-04-04T05:35:41.946Z,1383.74
2023-04-04T05:36:41.979Z,1375.26
2023-04-04T05:37:41.883Z,1368.26
2023-04-04T05:38:41.895Z,1382.32
2023-04-04T05:39:41.852Z,1409.85
2023-04-04T05:40:42.050Z,1401.04
2023-04-04T05:41:41.851Z,1433.90
2023-04-04T05:42:41.874Z,1450.92
2023-04-04T05:43:41.831Z,1438.50
2023-04-04T05:44:41.791Z,1452.48
2023-04-04T05:45:42.055Z,1458.79
2023-04-04T05:46:41.789Z,1446.24
2023-04-04T05:47:41.787Z,1441.59
2023-04-04T05:48:41.804Z,1479.65
2023-04-04T05:49:41.776Z,1507.85
2023-04-04T05:50:41.984Z,1509.54
2023-04-04T05:51:41.751Z,1501.12
2023-04-04T05:52:41.728Z,1496.11
2023-04-04T05:53:41.696Z,1497.77
2023-04-04T05:54:41.729Z,1496.94
2023-04-04T05:55:41.660Z,1509.54
2023-04-04T05:56:41.685Z,1514.64
2023-04-04T05:57:41.642Z,1531.89
2023-04-04T05:58:41.635Z,1520.63
2023-04-04T05:59:41.633Z,1542.43
2023-04-04T06:00:41.936Z,1554.91
2023-04-04T06:01:41.685Z,1560.32
2023-04-04T06:02:41.682Z,1501.12
2023-04-04T06:03:41.689Z,1516.35
2023-04-04T06:04:41.560Z,1564.86
2023-04-04T06:05:41.632Z,1549.54
2023-04-04T06:06:41.575Z,1574.02
2023-04-04T06:07:41.620Z,1584.22
2023-04-04T06:08:53.089Z,1612.71
2023-04-04T06:09:41.500Z,1618.53
2023-04-04T06:10:41.743Z,1660.49
2023-04-04T06:11:41.482Z,1643.25
2023-04-04T06:12:41.530Z,1662.55
2023-04-04T06:13:41.459Z,1652.33
2023-04-04T06:14:41.480Z,1678.10
2023-04-04T06:15:41.473Z,1659.47
2023-04-04T06:16:41.399Z,1681.25
2023-04-04T06:17:41.419Z,1665.63
2023-04-04T06:18:41.435Z,1716.66
2023-04-04T06:19:41.361Z,1767.41
2023-04-04T06:20:41.627Z,1744.49
2023-04-04T06:21:41.358Z,1759.32
2023-04-04T06:22:41.328Z,1817.57
2023-04-04T06:23:41.329Z,1776.75
2023-04-04T06:24:41.368Z,1820.03
2023-04-04T06:25:41.288Z,1828.69
2023-04-04T06:26:41.287Z,1886.40
2023-04-04T06:27:41.272Z,1953.52
2023-04-04T06:28:41.256Z,1950.69
2023-04-04T06:29:41.245Z,2022.56
2023-04-04T06:30:41.432Z,2008.96
2023-04-04T06:31:41.265Z,2040.97
2023-04-04T06:32:41.232Z,2056.57
2023-04-04T06:33:41.201Z,2080.43
2023-04-04T06:34:41.209Z,2109.80
2023-04-04T06:35:41.162Z,2124.80
2023-04-04T06:36:41.182Z,2134.92
2023-04-04T06:37:41.142Z,2140.02
2023-04-04T06:38:41.157Z,2171.10
2023-04-04T06:39:41.109Z,2226.82
2023-04-04T06:40:41.294Z,2237.94
2023-04-04T06:41:41.076Z,2249.16
2023-04-04T06:42:41.118Z,2260.50
2023-04-04T06:43:41.060Z,2245.41
2023-04-04T06:44:41.092Z,2264.31
2023-04-04T06:45:41.032Z,2351.40
2023-04-04T06:46:41.097Z,2416.89
2023-04-04T06:47:41.025Z,2425.61
2023-04-04T06:48:41.027Z,2434.39
2023-04-04T06:49:41.023Z,2452.14
2023-04-04T06:50:41.215Z,2547.35
2023-04-04T06:51:40.974Z,2554.60
2023-04-04T06:52:40.976Z,2569.25
2023-04-04T06:53:40.978Z,2566.79
2023-04-04T06:54:41.001Z,2571.70
2023-04-04T06:55:40.904Z,2601.55
2023-04-04T06:56:40.916Z,2616.73
2023-04-04T06:57:40.895Z,2626.95
2023-04-04T06:58:40.866Z,2647.64
2023-04-04T06:59:41.946Z,2684.63
2023-04-04T07:00:41.590Z,2728.19
2023-04-04T07:01:40.844Z,2781.80
2023-04-04T07:02:40.910Z,2837.55
2023-04-04T07:03:40.827Z,2822.67
2023-04-04T07:04:40.806Z,2837.55
2023-04-04T07:05:40.784Z,2843.55
2023-04-04T07:06:40.827Z,2911.25
2023-04-04T07:07:40.776Z,2936.68
2023-04-04T07:08:40.780Z,3012.32
2023-04-04T07:09:40.764Z,3002.23
2023-04-04T07:10:41.370Z,3070.78
2023-04-04T07:11:40.729Z,3088.40
2023-04-04T07:12:40.732Z,3083.09
2023-04-04T07:13:41.557Z,3206.20
2023-04-04T07:14:40.685Z,3292.53
2023-04-04T07:15:40.699Z,3308.73
2023-04-04T07:16:40.757Z,3439.90
2023-04-04T07:17:40.649Z,3558.20
2023-04-04T07:18:40.659Z,3736.11
2023-04-04T07:19:40.639Z,3876.08
2023-04-04T07:20:40.859Z,3985.19
2023-04-04T07:21:40.622Z,4069.59
2023-04-04T07:22:40.596Z,4125.77
2023-04-04T07:23:40.566Z,4209.70
2023-04-04T07:24:40.583Z,4310.90
2023-04-04T07:25:41.829Z,4293.69
2023-04-04T07:26:40.515Z,4239.56
2023-04-04T07:27:40.488Z,4377.54
2023-04-04T07:28:40.523Z,4453.64
2023-04-04T07:29:40.527Z,4536.26
2023-04-04T07:30:40.821Z,4590.44
2023-04-04T07:31:40.485Z,4666.09
2023-04-04T07:32:40.539Z,4682.33
2023-04-04T07:33:40.434Z,4735.92
2023-04-04T07:34:40.427Z,4812.16
2023-04-04T07:35:40.475Z,4773.73
2023-04-04T07:36:40.425Z,4913.24
2023-04-04T07:37:40.371Z,4926.74
2023-04-04T07:38:40.363Z,5143.40
2023-04-04T07:39:40.457Z,5163.15
2023-04-04T07:40:40.507Z,5238.56
2023-04-04T07:41:40.332Z,5223.30
2023-04-04T07:42:40.352Z,5310.96
2023-04-04T07:43:40.324Z,5369.26
2023-04-04T07:44:40.284Z,5310.96
2023-04-04T07:45:40.296Z,5390.78
2023-04-04T07:46:40.261Z,5390.78
2023-04-04T07:47:40.282Z,5439.84
2023-04-04T07:48:40.334Z,5552.12
2023-04-04T07:49:40.259Z,5860.57
2023-04-04T07:50:40.488Z,6065.39
2023-04-04T07:51:40.209Z,6248.55
2023-04-04T07:52:40.171Z,6374.41
2023-04-04T07:53:40.182Z,6589.10
2023-04-04T07:54:40.236Z,6621.54
2023-04-04T07:55:40.157Z,6545.01
2023-04-04T07:56:40.144Z,6439.26
2023-04-04T07:57:40.117Z,6446.97
2023-04-04T07:58:40.115Z,6704.05
2023-04-04T07:59:40.088Z,6650.19
2023-04-04T08:00:40.298Z,6879.79
2023-04-04T08:01:40.074Z,7041.88
2023-04-04T08:02:40.223Z,7178.12
2023-04-04T08:03:40.247Z,7154.25
2023-04-04T08:04:40.144Z,7055.74
2023-04-04T08:05:40.020Z,7060.37
2023-04-04T08:06:40.033Z,7461.86
2023-04-04T08:07:39.998Z,7848.29
2023-04-04T08:08:40.021Z,7842.56
2023-04-04T08:09:39.972Z,7785.82
2023-04-04T08:10:40.193Z,7900.15
2023-04-04T08:11:39.969Z,7946.82
2023-04-04T08:12:40.019Z,7929.25
2023-04-04T08:13:39.928Z,8053.89
2023-04-04T08:14:39.904Z,8380.06
2023-04-04T08:15:39.918Z,8059.92
2023-04-04T08:16:39.889Z,8341.08
2023-04-04T08:17:39.921Z,8877.89
2023-04-04T08:18:39.893Z,9212.33
2023-04-04T08:19:39.845Z,9324.09
2023-04-04T08:20:40.003Z,9581.48
2023-04-04T08:21:39.828Z,9667.57
2023-04-04T08:22:39.806Z,9926.20
2023-04-04T08:23:39.785Z,9781.82
2023-04-04T08:24:39.854Z,10009.30
2023-04-04T08:25:39.762Z,9990.71
2023-04-04T08:26:39.758Z,10093.81
2023-04-04T08:27:39.747Z,10923.86
2023-04-04T08:28:39.769Z,11196.67
2023-04-04T08:29:39.766Z,11278.83
2023-04-04T08:30:39.950Z,11374.21
2023-04-04T08:31:39.786Z,11495.73
2023-04-04T08:32:39.747Z,11024.59
2023-04-04T08:33:47.214Z,11607.33
2023-04-04T08:34:39.658Z,11995.54
2023-04-04T08:35:39.694Z,12076.32
2023-04-04T08:36:39.716Z,12062.78
2023-04-04T08:37:39.632Z,11811.20
2023-04-04T08:38:39.645Z,11968.86
2023-04-04T08:39:39.597Z,11733.92
2023-04-04T08:40:39.824Z,11695.65
2023-04-04T08:41:39.636Z,11902.66
2023-04-04T08:42:39.591Z,12089.89
2023-04-04T08:43:39.546Z,11968.86
2023-04-04T08:44:39.546Z,12410.61
2023-04-04T08:45:39.549Z,12688.68
2023-04-04T08:46:39.639Z,12917.17
2023-04-04T08:47:39.533Z,12794.29
2023-04-04T08:48:39.559Z,12886.23
2023-04-04T08:49:39.477Z,12917.17
2023-04-04T08:50:39.668Z,12673.73
2023-04-04T08:51:39.561Z,12917.17
2023-04-04T08:52:39.480Z,12917.17
2023-04-04T08:53:39.421Z,12917.17
2023-04-04T08:54:39.467Z,12917.17
2023-04-04T08:55:39.418Z,12917.17
2023-04-04T08:56:39.410Z,12917.17
2023-04-04T08:57:39.436Z,12917.17
2023-04-04T08:58:39.461Z,12917.17
2023-04-04T08:59:39.474Z,12917.17
2023-04-04T09:00:39.681Z,12917.17
2023-04-04T09:01:39.337Z,12917.17
2023-04-04T09:02:39.369Z,12917.17
2023-04-04T09:03:39.326Z,12917.17
2023-04-04T09:04:39.299Z,12917.17
2023-04-04T09:05:39.290Z,12917.17
2023-04-04T09:06:39.321Z,12917.17
2023-04-04T09:07:39.886Z,12917.17
2023-04-04T09:08:39.255Z,12917.17
2023-04-04T09:09:39.258Z,12917.17
2023-04-04T09:10:39.428Z,12917.17
2023-04-04T09:11:39.224Z,12917.17
2023-04-04T09:12:39.240Z,12917.17
2023-04-04T09:13:40.945Z,12917.17
2023-04-04T09:14:39.217Z,12917.17
2023-04-04T09:15:39.194Z,12917.17
2023-04-04T09:16:39.188Z,12917.17
2023-04-04T09:17:39.158Z,12917.17
2023-04-04T09:18:39.188Z,12917.17
2023-04-04T09:19:39.181Z,12917.17
2023-04-04T09:20:39.337Z,12917.17
2023-04-04T09:21:39.099Z,12917.17
2023-04-04T09:22:39.117Z,12917.17
2023-04-04T09:23:39.077Z,12917.17
2023-04-04T09:24:39.113Z,12917.17
2023-04-04T09:25:39.089Z,12917.17
2023-04-04T09:26:39.050Z,12917.17
2023-04-04T09:27:39.038Z,12917.17
2023-04-04T09:28:39.035Z,12917.17
2023-04-04T09:29:39.011Z,12917.17
2023-04-04T09:30:39.263Z,12917.17
2023-04-04T09:31:39.054Z,12917.17
2023-04-04T09:32:38.988Z,12917.17
2023-04-04T09:33:38.966Z,12917.17
2023-04-04T09:34:38.956Z,12917.17
2023-04-04T09:35:39.955Z,12917.17
2023-04-04T09:36:38.992Z,12917.17
2023-04-04T09:37:38.931Z,12917.17
2023-04-04T09:38:38.917Z,12917.17
2023-04-04T09:39:39.000Z,12917.17
2023-04-04T09:40:39.070Z,12917.17
2023-04-04T09:41:38.901Z,12917.17
2023-04-04T09:42:38.893Z,12917.17
2023-04-04T09:43:38.845Z,12917.17
2023-04-04T09:44:38.832Z,12917.17
2023-04-04T09:45:38.827Z,12917.17
2023-04-04T09:46:38.982Z,12917.17
2023-04-04T09:47:38.805Z,12917.17
2023-04-04T09:48:38.849Z,12917.17
2023-04-04T09:49:38.776Z,12917.17
2023-04-04T09:50:39.021Z,12917.17
2023-04-04T09:51:38.773Z,12917.17
2023-04-04T09:52:38.748Z,12917.17
2023-04-04T09:53:38.719Z,12917.17
2023-04-04T09:54:48.021Z,12917.17
2023-04-04T09:55:38.930Z,12917.17
2023-04-04T09:56:38.695Z,12917.17
2023-04-04T09:57:38.666Z,12917.17
2023-04-04T09:58:46.386Z,12917.17
2023-04-04T09:59:38.719Z,12917.17
2023-04-04T10:00:38.990Z,12917.17
2023-04-04T10:01:38.667Z,12917.17
2023-04-04T10:02:38.623Z,12917.17
2023-04-04T10:03:38.654Z,12917.17
2023-04-04T10:04:38.588Z,12917.17
2023-04-04T10:05:38.581Z,12917.17
2023-04-04T10:06:38.628Z,12917.17
2023-04-04T10:07:38.571Z,12917.17
2023-04-04T10:08:38.689Z,12917.17
2023-04-04T10:09:38.564Z,12917.17
2023-04-04T10:10:38.796Z,12917.17
2023-04-04T10:11:38.596Z,12917.17
2023-04-04T10:12:38.562Z,12917.17
2023-04-04T10:13:39.498Z,12917.17
2023-04-04T10:14:38.542Z,12917.17
2023-04-04T10:15:38.654Z,12917.17
2023-04-04T10:16:38.779Z,12917.17
2023-04-04T10:17:38.586Z,12917.17
2023-04-04T10:18:38.538Z,12917.17
2023-04-04T10:19:38.454Z,12917.17
2023-04-04T10:20:38.639Z,12917.17
2023-04-04T10:21:38.421Z,12917.17
2023-04-04T10:22:38.442Z,12917.17
2023-04-04T10:23:38.380Z,12917.17
2023-04-04T10:24:38.464Z,12917.17
2023-04-04T10:25:38.370Z,12917.17
2023-04-04T10:26:39.003Z,12917.17
2023-04-04T10:27:38.395Z,12917.17
2023-04-04T10:28:38.319Z,12917.17
2023-04-04T10:29:38.329Z,12917.17
2023-04-04T10:30:38.661Z,12917.17
2023-04-04T10:31:38.416Z,12917.17
2023-04-04T10:32:38.384Z,12917.17
2023-04-04T10:33:38.308Z,12917.17
2023-04-04T10:34:38.252Z,12917.17
2023-04-04T10:35:38.301Z,12917.17
2023-04-04T10:36:38.264Z,12917.17
2023-04-04T10:37:38.294Z,12917.17
2023-04-04T10:38:39.084Z,12917.17
2023-04-04T10:39:38.199Z,12917.17
2023-04-04T10:40:38.351Z,12917.17
2023-04-04T10:41:38.320Z,12917.17
2023-04-04T10:42:38.217Z,12917.17
2023-04-04T10:43:38.131Z,12917.17
2023-04-04T10:44:38.137Z,12917.17
2023-04-04T10:45:38.137Z,12917.17
2023-04-04T10:46:38.422Z,12917.17
2023-04-04T10:47:38.142Z,12917.17
2023-04-04T10:48:38.155Z,12917.17
2023-04-04T10:49:39.281Z,12917.17
2023-04-04T10:50:38.059Z,12917.17
2023-04-04T10:51:48.820Z,12917.17
2023-04-04T10:52:38.050Z,12917.17
2023-04-04T10:53:38.030Z,12917.17
2023-04-04T10:54:38.082Z,12917.17
2023-04-04T10:55:38.302Z,12917.17
2023-04-04T10:56:38.017Z,12917.17
2023-04-04T10:57:38.015Z,12917.17
2023-04-04T10:58:37.985Z,12917.17
2023-04-04T10:59:38.180Z,12917.17
2023-04-04T11:00:38.005Z,12917.17
2023-04-04T11:01:37.954Z,12917.17
2023-04-04T11:02:38.503Z,12917.17
2023-04-04T11:03:37.921Z,12917.17
2023-04-04T11:04:38.177Z,12917.17
2023-04-04T11:05:38.046Z,12917.17
2023-04-04T11:06:37.918Z,12917.17
2023-04-04T11:07:38.683Z,12917.17
2023-04-04T11:08:38.577Z,12917.17
2023-04-04T11:09:37.840Z,12917.17
2023-04-04T11:10:37.840Z,12917.17
2023-04-04T11:11:38.209Z,12917.17
2023-04-04T11:12:37.898Z,12917.17
2023-04-04T11:13:37.890Z,12917.17
2023-04-04T11:14:37.786Z,12917.17
2023-04-04T11:15:37.997Z,12917.17
2023-04-04T11:16:37.820Z,12917.17
2023-04-04T11:17:37.843Z,12917.17
2023-04-04T11:18:37.829Z,12917.17
2023-04-04T11:19:37.732Z,12917.17
2023-04-04T11:20:38.049Z,12917.17
2023-04-04T11:21:37.754Z,12917.17
2023-04-04T11:22:38.597Z,12917.17
2023-04-04T11:23:37.853Z,12917.17
2023-04-04T11:24:37.717Z,12917.17
2023-04-04T11:25:37.932Z,12917.17
2023-04-04T11:26:37.836Z,12917.17
2023-04-04T11:27:37.781Z,12917.17
2023-04-04T11:28:37.636Z,12917.17
2023-04-04T11:29:37.747Z,12917.17
2023-04-04T11:30:37.725Z,12917.17
2023-04-04T11:31:37.707Z,12917.17
2023-04-04T11:32:37.780Z,12917.17
2023-04-04T11:33:37.575Z,12917.17
2023-04-04T11:34:37.583Z,12917.17
2023-04-04T11:35:37.812Z,12917.17
2023-04-04T11:36:37.579Z,12917.17
2023-04-04T11:37:37.759Z,12917.17
2023-04-04T11:38:37.785Z,12917.17
2023-04-04T11:39:37.522Z,12917.17
2023-04-04T11:40:37.478Z,12917.17
2023-04-04T11:41:37.490Z,12917.17
2023-04-04T11:42:37.771Z,12917.17
2023-04-04T11:43:37.817Z,12917.17
2023-04-04T11:44:37.502Z,12917.17
2023-04-04T11:45:37.816Z,12917.17
2023-04-04T11:46:37.601Z,12917.17
2023-04-04T11:47:37.814Z,12917.17
2023-04-04T11:48:37.459Z,12917.17
2023-04-04T11:49:37.398Z,12917.17
2023-04-04T11:50:37.418Z,12917.17
2023-04-04T11:51:37.366Z,12917.17
2023-04-04T11:52:37.363Z,12917.17
2023-04-04T11:53:37.486Z,12917.17
2023-04-04T11:54:37.404Z,12917.17
2023-04-04T11:55:37.562Z,12917.17
2023-04-04T11:56:37.360Z,12917.17
2023-04-04T11:57:37.317Z,12917.17
2023-04-04T11:58:37.834Z,12917.17
2023-04-04T11:59:37.435Z,12917.17